sensor_id;sensor_type;location;lat;lon;timestamp;P1;durP1;ratioP1;P2;durP2;ratioP2
64885;SDS011;51514;52.206;5.114;2023-05-10T00:01:39;62.53;;;32.63;;
64885;SDS011;51514;52.206;5.114;2023-05-10T00:04:05;53.10;;;29.55;;
64885;SDS011;51514;52.206;5.114;2023-05-10T00:06:31;52.63;;;30.48;;
64885;SDS011;51514;52.206;5.114;2023-05-10T00:08:56;57.60;;;31.73;;
64885;SDS011;51514;52.206;5.114;2023-05-10T00:11:22;54.92;;;30.92;;
64885;SDS011;51514;52.206;5.114;2023-05-10T00:13:47;56.90;;;33.55;;
64885;SDS011;51514;52.206;5.114;2023-05-10T00:16:13;54.67;;;30.90;;
64885;SDS011;51514;52.206;5.114;2023-05-10T00:18:38;54.22;;;31.05;;
64885;SDS011;51514;52.206;5.114;2023-05-10T00:21:04;57.95;;;31.35;;
64885;SDS011;51514;52.206;5.114;2023-05-10T00:23:30;57.55;;;31.85;;
64885;SDS011;51514;52.206;5.114;2023-05-10T00:25:56;58.10;;;31.98;;
64885;SDS011;51514;52.206;5.114;2023-05-10T00:28:21;57.30;;;31.35;;
64885;SDS011;51514;52.206;5.114;2023-05-10T00:30:46;61.58;;;32.40;;
64885;SDS011;51514;52.206;5.114;2023-05-10T00:33:12;52.72;;;30.35;;
64885;SDS011;51514;52.206;5.114;2023-05-10T00:35:37;57.72;;;32.55;;
64885;SDS011;51514;52.206;5.114;2023-05-10T00:38:03;62.17;;;33.17;;
64885;SDS011;51514;52.206;5.114;2023-05-10T00:40:28;58.22;;;33.65;;
64885;SDS011;51514;52.206;5.114;2023-05-10T00:42:55;54.85;;;33.25;;
64885;SDS011;51514;52.206;5.114;2023-05-10T00:45:21;56.08;;;32.70;;
64885;SDS011;51514;52.206;5.114;2023-05-10T00:47:46;58.25;;;32.95;;
64885;SDS011;51514;52.206;5.114;2023-05-10T00:50:11;55.88;;;32.85;;
64885;SDS011;51514;52.206;5.114;2023-05-10T00:52:37;64.40;;;35.10;;
64885;SDS011;51514;52.206;5.114;2023-05-10T00:55:02;60.05;;;33.35;;
64885;SDS011;51514;52.206;5.114;2023-05-10T00:57:29;60.65;;;34.63;;
64885;SDS011;51514;52.206;5.114;2023-05-10T00:59:54;56.55;;;35.42;;
64885;SDS011;51514;52.206;5.114;2023-05-10T01:02:19;56.83;;;34.88;;
64885;SDS011;51514;52.206;5.114;2023-05-10T01:04:45;56.47;;;34.90;;
64885;SDS011;51514;52.206;5.114;2023-05-10T01:07:10;60.05;;;33.58;;
64885;SDS011;51514;52.206;5.114;2023-05-10T01:09:35;58.97;;;35.85;;
64885;SDS011;51514;52.206;5.114;2023-05-10T01:12:01;49.00;;;31.95;;
64885;SDS011;51514;52.206;5.114;2023-05-10T01:14:27;51.75;;;33.30;;
64885;SDS011;51514;52.206;5.114;2023-05-10T01:16:53;56.05;;;35.13;;
64885;SDS011;51514;52.206;5.114;2023-05-10T01:19:22;59.75;;;35.83;;
64885;SDS011;51514;52.206;5.114;2023-05-10T01:35:23;68.55;;;35.50;;
64885;SDS011;51514;52.206;5.114;2023-05-10T01:40:35;67.40;;;36.60;;
64885;SDS011;51514;52.206;5.114;2023-05-10T01:43:08;73.53;;;38.88;;
64885;SDS011;51514;52.206;5.114;2023-05-10T01:45:47;72.43;;;38.60;;
64885;SDS011;51514;52.206;5.114;2023-05-10T01:48:20;71.63;;;40.67;;
64885;SDS011;51514;52.206;5.114;2023-05-10T01:50:47;76.60;;;39.40;;
64885;SDS011;51514;52.206;5.114;2023-05-10T01:53:17;69.57;;;38.33;;
64885;SDS011;51514;52.206;5.114;2023-05-10T01:55:51;73.53;;;40.22;;
64885;SDS011;51514;52.206;5.114;2023-05-10T01:58:25;78.13;;;40.00;;
64885;SDS011;51514;52.206;5.114;2023-05-10T02:00:54;75.85;;;40.40;;
64885;SDS011;51514;52.206;5.114;2023-05-10T02:03:21;66.82;;;38.70;;
64885;SDS011;51514;52.206;5.114;2023-05-10T02:05:49;70.30;;;39.63;;
64885;SDS011;51514;52.206;5.114;2023-05-10T02:08:17;70.55;;;40.03;;
64885;SDS011;51514;52.206;5.114;2023-05-10T02:10:44;71.57;;;39.08;;
64885;SDS011;51514;52.206;5.114;2023-05-10T02:13:11;69.80;;;39.30;;
64885;SDS011;51514;52.206;5.114;2023-05-10T02:15:38;77.97;;;42.08;;
64885;SDS011;51514;52.206;5.114;2023-05-10T02:18:05;75.47;;;42.35;;
64885;SDS011;51514;52.206;5.114;2023-05-10T02:20:31;67.30;;;37.05;;
64885;SDS011;51514;52.206;5.114;2023-05-10T02:22:58;68.45;;;37.80;;
64885;SDS011;51514;52.206;5.114;2023-05-10T02:25:25;73.85;;;36.63;;
64885;SDS011;51514;52.206;5.114;2023-05-10T02:27:54;69.13;;;36.58;;
64885;SDS011;51514;52.206;5.114;2023-05-10T02:30:21;72.90;;;36.08;;
64885;SDS011;51514;52.206;5.114;2023-05-10T02:32:48;78.13;;;37.38;;
64885;SDS011;51514;52.206;5.114;2023-05-10T02:35:15;75.35;;;36.58;;
64885;SDS011;51514;52.206;5.114;2023-05-10T02:37:41;77.45;;;36.08;;
64885;SDS011;51514;52.206;5.114;2023-05-10T02:40:08;69.00;;;37.50;;
64885;SDS011;51514;52.206;5.114;2023-05-10T02:42:36;77.13;;;38.45;;
64885;SDS011;51514;52.206;5.114;2023-05-10T02:45:05;81.70;;;42.63;;
64885;SDS011;51514;52.206;5.114;2023-05-10T02:47:35;83.38;;;40.65;;
64885;SDS011;51514;52.206;5.114;2023-05-10T02:50:01;82.53;;;41.38;;
64885;SDS011;51514;52.206;5.114;2023-05-10T02:52:27;94.53;;;44.45;;
64885;SDS011;51514;52.206;5.114;2023-05-10T02:55:00;91.80;;;45.63;;
64885;SDS011;51514;52.206;5.114;2023-05-10T02:57:28;96.68;;;42.00;;
64885;SDS011;51514;52.206;5.114;2023-05-10T02:59:58;89.28;;;41.20;;
64885;SDS011;51514;52.206;5.114;2023-05-10T03:02:25;95.10;;;42.80;;
64885;SDS011;51514;52.206;5.114;2023-05-10T03:04:51;90.10;;;40.58;;
64885;SDS011;51514;52.206;5.114;2023-05-10T03:07:16;92.47;;;40.40;;
64885;SDS011;51514;52.206;5.114;2023-05-10T03:09:44;93.10;;;42.17;;
64885;SDS011;51514;52.206;5.114;2023-05-10T03:14:59;84.63;;;37.75;;
64885;SDS011;51514;52.206;5.114;2023-05-10T03:17:46;82.95;;;36.85;;
64885;SDS011;51514;52.206;5.114;2023-05-10T03:20:43;90.40;;;37.42;;
64885;SDS011;51514;52.206;5.114;2023-05-10T03:23:16;88.13;;;34.95;;
64885;SDS011;51514;52.206;5.114;2023-05-10T03:25:44;90.30;;;34.35;;
64885;SDS011;51514;52.206;5.114;2023-05-10T03:28:12;87.18;;;36.40;;
64885;SDS011;51514;52.206;5.114;2023-05-10T03:30:40;97.18;;;36.17;;
64885;SDS011;51514;52.206;5.114;2023-05-10T03:33:07;90.22;;;35.33;;
64885;SDS011;51514;52.206;5.114;2023-05-10T03:35:33;90.13;;;33.60;;
64885;SDS011;51514;52.206;5.114;2023-05-10T03:37:58;93.15;;;35.80;;
64885;SDS011;51514;52.206;5.114;2023-05-10T03:40:24;96.32;;;37.08;;
64885;SDS011;51514;52.206;5.114;2023-05-10T03:42:50;101.28;;;35.33;;
64885;SDS011;51514;52.206;5.114;2023-05-10T03:45:15;104.53;;;39.78;;
64885;SDS011;51514;52.206;5.114;2023-05-10T03:47:41;95.28;;;36.85;;
64885;SDS011;51514;52.206;5.114;2023-05-10T03:50:06;91.07;;;37.40;;
64885;SDS011;51514;52.206;5.114;2023-05-10T03:52:32;87.22;;;38.08;;
64885;SDS011;51514;52.206;5.114;2023-05-10T03:54:58;90.78;;;36.58;;
64885;SDS011;51514;52.206;5.114;2023-05-10T03:57:23;90.43;;;39.45;;
64885;SDS011;51514;52.206;5.114;2023-05-10T03:59:48;86.80;;;40.92;;
64885;SDS011;51514;52.206;5.114;2023-05-10T04:02:14;83.35;;;37.45;;
64885;SDS011;51514;52.206;5.114;2023-05-10T04:04:39;77.82;;;36.63;;
64885;SDS011;51514;52.206;5.114;2023-05-10T04:07:04;80.22;;;36.85;;
64885;SDS011;51514;52.206;5.114;2023-05-10T04:09:30;82.22;;;38.17;;
64885;SDS011;51514;52.206;5.114;2023-05-10T04:11:55;80.90;;;35.63;;
64885;SDS011;51514;52.206;5.114;2023-05-10T04:14:21;84.85;;;37.90;;
64885;SDS011;51514;52.206;5.114;2023-05-10T04:16:46;76.38;;;35.85;;
64885;SDS011;51514;52.206;5.114;2023-05-10T04:19:11;92.75;;;37.70;;
64885;SDS011;51514;52.206;5.114;2023-05-10T04:21:37;79.57;;;36.20;;
64885;SDS011;51514;52.206;5.114;2023-05-10T04:24:02;83.72;;;34.95;;
64885;SDS011;51514;52.206;5.114;2023-05-10T04:26:28;88.00;;;36.15;;
64885;SDS011;51514;52.206;5.114;2023-05-10T04:28:53;83.75;;;34.90;;
64885;SDS011;51514;52.206;5.114;2023-05-10T04:31:18;80.88;;;33.55;;
64885;SDS011;51514;52.206;5.114;2023-05-10T04:33:44;81.28;;;33.42;;
64885;SDS011;51514;52.206;5.114;2023-05-10T04:36:09;75.28;;;32.10;;
64885;SDS011;51514;52.206;5.114;2023-05-10T04:38:35;83.00;;;33.35;;
64885;SDS011;51514;52.206;5.114;2023-05-10T04:41:06;78.38;;;34.25;;
64885;SDS011;51514;52.206;5.114;2023-05-10T04:43:33;97.28;;;36.70;;
64885;SDS011;51514;52.206;5.114;2023-05-10T04:45:58;82.85;;;35.42;;
64885;SDS011;51514;52.206;5.114;2023-05-10T04:48:24;94.47;;;36.95;;
64885;SDS011;51514;52.206;5.114;2023-05-10T04:50:49;89.65;;;37.35;;
64885;SDS011;51514;52.206;5.114;2023-05-10T04:53:15;87.18;;;37.17;;
64885;SDS011;51514;52.206;5.114;2023-05-10T04:55:40;78.35;;;34.58;;
64885;SDS011;51514;52.206;5.114;2023-05-10T04:58:05;67.95;;;35.97;;
64885;SDS011;51514;52.206;5.114;2023-05-10T05:00:31;81.75;;;36.20;;
64885;SDS011;51514;52.206;5.114;2023-05-10T05:02:56;62.08;;;34.92;;
64885;SDS011;51514;52.206;5.114;2023-05-10T05:05:22;58.55;;;31.08;;
64885;SDS011;51514;52.206;5.114;2023-05-10T05:07:47;59.58;;;30.27;;
64885;SDS011;51514;52.206;5.114;2023-05-10T05:10:12;46.85;;;25.50;;
64885;SDS011;51514;52.206;5.114;2023-05-10T05:12:38;41.22;;;22.23;;
64885;SDS011;51514;52.206;5.114;2023-05-10T05:15:03;42.90;;;21.60;;
64885;SDS011;51514;52.206;5.114;2023-05-10T05:17:32;34.47;;;19.98;;
64885;SDS011;51514;52.206;5.114;2023-05-10T05:19:57;30.42;;;18.60;;
64885;SDS011;51514;52.206;5.114;2023-05-10T05:22:22;34.55;;;19.15;;
64885;SDS011;51514;52.206;5.114;2023-05-10T05:24:55;31.42;;;17.38;;
64885;SDS011;51514;52.206;5.114;2023-05-10T05:27:23;26.52;;;16.60;;
64885;SDS011;51514;52.206;5.114;2023-05-10T05:29:52;27.60;;;15.57;;
64885;SDS011;51514;52.206;5.114;2023-05-10T05:32:18;24.80;;;15.38;;
64885;SDS011;51514;52.206;5.114;2023-05-10T05:34:44;24.35;;;15.02;;
64885;SDS011;51514;52.206;5.114;2023-05-10T05:37:17;23.45;;;15.02;;
64885;SDS011;51514;52.206;5.114;2023-05-10T05:39:43;28.20;;;16.10;;
64885;SDS011;51514;52.206;5.114;2023-05-10T05:42:09;25.52;;;16.65;;
64885;SDS011;51514;52.206;5.114;2023-05-10T05:44:35;28.52;;;15.60;;
64885;SDS011;51514;52.206;5.114;2023-05-10T05:47:00;31.08;;;17.25;;
64885;SDS011;51514;52.206;5.114;2023-05-10T05:49:26;26.48;;;15.60;;
64885;SDS011;51514;52.206;5.114;2023-05-10T05:51:51;26.23;;;16.02;;
64885;SDS011;51514;52.206;5.114;2023-05-10T05:54:16;27.13;;;16.42;;
64885;SDS011;51514;52.206;5.114;2023-05-10T05:56:41;29.13;;;16.30;;
64885;SDS011;51514;52.206;5.114;2023-05-10T05:59:07;32.28;;;17.20;;
64885;SDS011;51514;52.206;5.114;2023-05-10T06:01:32;27.85;;;16.85;;
64885;SDS011;51514;52.206;5.114;2023-05-10T06:03:58;36.22;;;18.63;;
64885;SDS011;51514;52.206;5.114;2023-05-10T06:06:23;37.28;;;19.05;;
64885;SDS011;51514;52.206;5.114;2023-05-10T06:08:48;38.35;;;19.38;;
64885;SDS011;51514;52.206;5.114;2023-05-10T06:11:14;33.65;;;18.67;;
64885;SDS011;51514;52.206;5.114;2023-05-10T06:13:39;33.35;;;18.80;;
64885;SDS011;51514;52.206;5.114;2023-05-10T06:16:05;29.13;;;18.35;;
64885;SDS011;51514;52.206;5.114;2023-05-10T06:18:30;36.47;;;19.15;;
64885;SDS011;51514;52.206;5.114;2023-05-10T06:20:56;34.13;;;17.77;;
64885;SDS011;51514;52.206;5.114;2023-05-10T06:23:22;29.38;;;16.90;;
64885;SDS011;51514;52.206;5.114;2023-05-10T06:25:48;29.17;;;16.73;;
64885;SDS011;51514;52.206;5.114;2023-05-10T06:28:13;32.03;;;18.10;;
64885;SDS011;51514;52.206;5.114;2023-05-10T06:30:38;31.70;;;17.58;;
64885;SDS011;51514;52.206;5.114;2023-05-10T06:33:04;29.67;;;17.77;;
64885;SDS011;51514;52.206;5.114;2023-05-10T06:35:29;29.88;;;15.90;;
64885;SDS011;51514;52.206;5.114;2023-05-10T06:37:56;33.92;;;16.05;;
64885;SDS011;51514;52.206;5.114;2023-05-10T06:40:21;30.63;;;16.38;;
64885;SDS011;51514;52.206;5.114;2023-05-10T06:43:12;32.10;;;15.65;;
64885;SDS011;51514;52.206;5.114;2023-05-10T06:45:37;27.42;;;14.75;;
64885;SDS011;51514;52.206;5.114;2023-05-10T06:48:03;24.42;;;14.95;;
64885;SDS011;51514;52.206;5.114;2023-05-10T06:50:28;22.45;;;14.77;;
64885;SDS011;51514;52.206;5.114;2023-05-10T06:52:57;22.30;;;14.10;;
64885;SDS011;51514;52.206;5.114;2023-05-10T06:56:06;28.30;;;15.93;;
64885;SDS011;51514;52.206;5.114;2023-05-10T06:58:31;29.08;;;15.10;;
64885;SDS011;51514;52.206;5.114;2023-05-10T07:01:10;27.60;;;15.35;;
64885;SDS011;51514;52.206;5.114;2023-05-10T07:03:41;27.83;;;14.55;;
64885;SDS011;51514;52.206;5.114;2023-05-10T07:06:06;25.83;;;14.15;;
64885;SDS011;51514;52.206;5.114;2023-05-10T07:08:32;28.63;;;14.30;;
64885;SDS011;51514;52.206;5.114;2023-05-10T07:10:59;25.40;;;13.93;;
64885;SDS011;51514;52.206;5.114;2023-05-10T07:13:29;25.73;;;14.15;;
64885;SDS011;51514;52.206;5.114;2023-05-10T07:15:55;21.27;;;13.60;;
64885;SDS011;51514;52.206;5.114;2023-05-10T07:18:20;22.08;;;13.70;;
64885;SDS011;51514;52.206;5.114;2023-05-10T07:20:46;25.42;;;14.02;;
64885;SDS011;51514;52.206;5.114;2023-05-10T07:23:11;32.00;;;17.20;;
64885;SDS011;51514;52.206;5.114;2023-05-10T07:25:36;21.85;;;14.30;;
64885;SDS011;51514;52.206;5.114;2023-05-10T07:28:02;22.58;;;14.70;;
64885;SDS011;51514;52.206;5.114;2023-05-10T07:30:27;24.02;;;13.88;;
64885;SDS011;51514;52.206;5.114;2023-05-10T07:32:53;23.30;;;14.60;;
64885;SDS011;51514;52.206;5.114;2023-05-10T07:35:18;24.23;;;13.82;;
64885;SDS011;51514;52.206;5.114;2023-05-10T07:37:43;21.30;;;13.57;;
64885;SDS011;51514;52.206;5.114;2023-05-10T07:40:09;23.85;;;13.70;;
64885;SDS011;51514;52.206;5.114;2023-05-10T07:42:34;21.52;;;13.95;;
64885;SDS011;51514;52.206;5.114;2023-05-10T07:45:00;23.17;;;15.45;;
64885;SDS011;51514;52.206;5.114;2023-05-10T07:47:25;22.75;;;14.70;;
64885;SDS011;51514;52.206;5.114;2023-05-10T07:49:50;20.25;;;13.73;;
64885;SDS011;51514;52.206;5.114;2023-05-10T07:52:16;25.40;;;14.20;;
64885;SDS011;51514;52.206;5.114;2023-05-10T07:54:41;24.63;;;15.82;;
64885;SDS011;51514;52.206;5.114;2023-05-10T07:57:06;22.50;;;14.38;;
64885;SDS011;51514;52.206;5.114;2023-05-10T07:59:32;21.77;;;14.60;;
64885;SDS011;51514;52.206;5.114;2023-05-10T08:01:58;26.88;;;15.35;;
64885;SDS011;51514;52.206;5.114;2023-05-10T08:04:23;22.98;;;15.57;;
64885;SDS011;51514;52.206;5.114;2023-05-10T08:06:49;25.23;;;16.60;;
64885;SDS011;51514;52.206;5.114;2023-05-10T08:09:14;24.05;;;15.18;;
64885;SDS011;51514;52.206;5.114;2023-05-10T08:11:40;26.17;;;15.45;;
64885;SDS011;51514;52.206;5.114;2023-05-10T08:14:05;26.30;;;15.35;;
64885;SDS011;51514;52.206;5.114;2023-05-10T08:16:31;25.00;;;15.82;;
64885;SDS011;51514;52.206;5.114;2023-05-10T08:18:57;22.45;;;14.00;;
64885;SDS011;51514;52.206;5.114;2023-05-10T08:21:22;23.05;;;13.55;;
64885;SDS011;51514;52.206;5.114;2023-05-10T08:23:48;21.10;;;12.77;;
64885;SDS011;51514;52.206;5.114;2023-05-10T08:26:13;21.98;;;13.57;;
64885;SDS011;51514;52.206;5.114;2023-05-10T08:28:39;23.63;;;14.10;;
64885;SDS011;51514;52.206;5.114;2023-05-10T08:31:04;19.15;;;12.00;;
64885;SDS011;51514;52.206;5.114;2023-05-10T08:33:30;20.83;;;12.95;;
64885;SDS011;51514;52.206;5.114;2023-05-10T08:35:55;16.73;;;12.60;;
64885;SDS011;51514;52.206;5.114;2023-05-10T08:38:21;21.30;;;11.77;;
64885;SDS011;51514;52.206;5.114;2023-05-10T08:40:46;18.13;;;12.45;;
64885;SDS011;51514;52.206;5.114;2023-05-10T08:43:15;19.08;;;11.68;;
64885;SDS011;51514;52.206;5.114;2023-05-10T08:45:42;18.63;;;11.50;;
64885;SDS011;51514;52.206;5.114;2023-05-10T08:48:10;18.60;;;12.13;;
64885;SDS011;51514;52.206;5.114;2023-05-10T08:50:37;16.15;;;11.13;;
64885;SDS011;51514;52.206;5.114;2023-05-10T08:53:04;20.92;;;12.25;;
64885;SDS011;51514;52.206;5.114;2023-05-10T08:55:40;18.23;;;11.70;;
64885;SDS011;51514;52.206;5.114;2023-05-10T08:58:07;15.73;;;11.38;;
64885;SDS011;51514;52.206;5.114;2023-05-10T09:00:33;15.15;;;10.27;;
64885;SDS011;51514;52.206;5.114;2023-05-10T09:03:00;15.02;;;10.40;;
64885;SDS011;51514;52.206;5.114;2023-05-10T09:05:26;17.02;;;10.60;;
64885;SDS011;51514;52.206;5.114;2023-05-10T09:07:52;16.85;;;10.40;;
64885;SDS011;51514;52.206;5.114;2023-05-10T09:10:18;20.40;;;11.70;;
64885;SDS011;51514;52.206;5.114;2023-05-10T09:12:44;13.18;;;9.82;;
64885;SDS011;51514;52.206;5.114;2023-05-10T09:15:10;14.88;;;10.40;;
64885;SDS011;51514;52.206;5.114;2023-05-10T09:17:37;13.95;;;10.23;;
64885;SDS011;51514;52.206;5.114;2023-05-10T09:20:03;19.00;;;11.90;;
64885;SDS011;51514;52.206;5.114;2023-05-10T09:22:30;17.38;;;11.25;;
64885;SDS011;51514;52.206;5.114;2023-05-10T09:27:34;14.50;;;9.65;;
64885;SDS011;51514;52.206;5.114;2023-05-10T09:30:01;13.07;;;10.07;;
64885;SDS011;51514;52.206;5.114;2023-05-10T09:32:40;14.82;;;10.15;;
64885;SDS011;51514;52.206;5.114;2023-05-10T09:37:33;13.98;;;9.02;;
64885;SDS011;51514;52.206;5.114;2023-05-10T09:39:58;14.45;;;10.30;;
64885;SDS011;51514;52.206;5.114;2023-05-10T09:42:23;14.00;;;9.75;;
64885;SDS011;51514;52.206;5.114;2023-05-10T09:44:49;15.70;;;9.57;;
64885;SDS011;51514;52.206;5.114;2023-05-10T09:47:17;14.63;;;9.85;;
64885;SDS011;51514;52.206;5.114;2023-05-10T09:52:09;11.88;;;7.60;;
64885;SDS011;51514;52.206;5.114;2023-05-10T09:54:35;13.57;;;8.15;;
64885;SDS011;51514;52.206;5.114;2023-05-10T09:57:02;12.57;;;8.00;;
64885;SDS011;51514;52.206;5.114;2023-05-10T09:59:28;14.57;;;7.90;;
64885;SDS011;51514;52.206;5.114;2023-05-10T10:01:55;10.80;;;7.57;;
64885;SDS011;51514;52.206;5.114;2023-05-10T10:04:22;13.80;;;8.27;;
64885;SDS011;51514;52.206;5.114;2023-05-10T10:06:57;11.30;;;6.38;;
64885;SDS011;51514;52.206;5.114;2023-05-10T10:09:27;10.60;;;7.00;;
64885;SDS011;51514;52.206;5.114;2023-05-10T10:11:53;9.10;;;6.38;;
64885;SDS011;51514;52.206;5.114;2023-05-10T10:14:19;10.20;;;5.63;;
64885;SDS011;51514;52.206;5.114;2023-05-10T10:16:45;12.27;;;5.88;;
64885;SDS011;51514;52.206;5.114;2023-05-10T10:19:11;10.75;;;6.70;;
64885;SDS011;51514;52.206;5.114;2023-05-10T10:21:37;9.82;;;6.57;;
64885;SDS011;51514;52.206;5.114;2023-05-10T10:24:02;11.77;;;7.75;;
64885;SDS011;51514;52.206;5.114;2023-05-10T10:26:34;10.38;;;7.45;;
64885;SDS011;51514;52.206;5.114;2023-05-10T10:29:19;11.57;;;7.82;;
64885;SDS011;51514;52.206;5.114;2023-05-10T10:32:09;15.60;;;7.82;;
64885;SDS011;51514;52.206;5.114;2023-05-10T10:34:39;11.95;;;7.88;;
64885;SDS011;51514;52.206;5.114;2023-05-10T10:37:05;11.68;;;7.53;;
64885;SDS011;51514;52.206;5.114;2023-05-10T10:39:31;11.30;;;6.65;;
64885;SDS011;51514;52.206;5.114;2023-05-10T10:41:57;14.30;;;7.22;;
64885;SDS011;51514;52.206;5.114;2023-05-10T10:49:23;8.93;;;5.90;;
64885;SDS011;51514;52.206;5.114;2023-05-10T10:55:19;15.05;;;7.50;;
64885;SDS011;51514;52.206;5.114;2023-05-10T11:02:57;9.32;;;6.68;;
64885;SDS011;51514;52.206;5.114;2023-05-10T11:07:58;10.90;;;7.00;;
64885;SDS011;51514;52.206;5.114;2023-05-10T11:10:25;9.32;;;6.15;;
64885;SDS011;51514;52.206;5.114;2023-05-10T11:13:01;10.77;;;5.75;;
64885;SDS011;51514;52.206;5.114;2023-05-10T11:15:31;7.78;;;5.20;;
64885;SDS011;51514;52.206;5.114;2023-05-10T11:17:58;8.45;;;4.47;;
64885;SDS011;51514;52.206;5.114;2023-05-10T11:20:26;7.30;;;4.95;;
64885;SDS011;51514;52.206;5.114;2023-05-10T11:22:58;8.13;;;5.18;;
64885;SDS011;51514;52.206;5.114;2023-05-10T11:25:39;9.55;;;5.82;;
64885;SDS011;51514;52.206;5.114;2023-05-10T11:28:06;9.50;;;6.35;;
64885;SDS011;51514;52.206;5.114;2023-05-10T11:30:31;9.75;;;6.07;;
64885;SDS011;51514;52.206;5.114;2023-05-10T11:32:57;9.80;;;6.60;;
64885;SDS011;51514;52.206;5.114;2023-05-10T11:35:22;8.45;;;5.63;;
64885;SDS011;51514;52.206;5.114;2023-05-10T11:37:48;13.18;;;5.93;;
64885;SDS011;51514;52.206;5.114;2023-05-10T11:40:13;9.73;;;6.28;;
64885;SDS011;51514;52.206;5.114;2023-05-10T11:42:39;9.00;;;5.90;;
64885;SDS011;51514;52.206;5.114;2023-05-10T11:45:05;9.15;;;6.32;;
64885;SDS011;51514;52.206;5.114;2023-05-10T11:47:31;10.18;;;5.68;;
64885;SDS011;51514;52.206;5.114;2023-05-10T11:49:56;9.77;;;5.78;;
64885;SDS011;51514;52.206;5.114;2023-05-10T11:52:22;8.98;;;5.88;;
64885;SDS011;51514;52.206;5.114;2023-05-10T11:54:51;9.07;;;5.53;;
64885;SDS011;51514;52.206;5.114;2023-05-10T11:57:20;8.07;;;4.82;;
64885;SDS011;51514;52.206;5.114;2023-05-10T11:59:55;10.80;;;5.80;;
64885;SDS011;51514;52.206;5.114;2023-05-10T12:02:21;10.25;;;5.45;;
64885;SDS011;51514;52.206;5.114;2023-05-10T12:04:46;10.57;;;6.10;;
64885;SDS011;51514;52.206;5.114;2023-05-10T12:07:12;9.38;;;5.78;;
64885;SDS011;51514;52.206;5.114;2023-05-10T12:09:42;9.60;;;6.57;;
64885;SDS011;51514;52.206;5.114;2023-05-10T12:12:08;9.68;;;6.25;;
64885;SDS011;51514;52.206;5.114;2023-05-10T12:14:34;8.85;;;6.10;;
64885;SDS011;51514;52.206;5.114;2023-05-10T12:17:00;9.10;;;6.13;;
64885;SDS011;51514;52.206;5.114;2023-05-10T12:19:25;8.90;;;5.95;;
64885;SDS011;51514;52.206;5.114;2023-05-10T12:21:50;9.38;;;6.20;;
64885;SDS011;51514;52.206;5.114;2023-05-10T12:24:16;9.98;;;6.68;;
64885;SDS011;51514;52.206;5.114;2023-05-10T12:26:42;8.75;;;6.07;;
64885;SDS011;51514;52.206;5.114;2023-05-10T12:29:17;13.20;;;7.53;;
64885;SDS011;51514;52.206;5.114;2023-05-10T12:31:54;11.75;;;7.68;;
64885;SDS011;51514;52.206;5.114;2023-05-10T12:34:23;13.60;;;8.93;;
64885;SDS011;51514;52.206;5.114;2023-05-10T12:36:55;13.43;;;7.70;;
64885;SDS011;51514;52.206;5.114;2023-05-10T12:39:20;12.98;;;8.45;;
64885;SDS011;51514;52.206;5.114;2023-05-10T12:41:46;13.35;;;8.75;;
64885;SDS011;51514;52.206;5.114;2023-05-10T12:44:11;14.52;;;9.43;;
64885;SDS011;51514;52.206;5.114;2023-05-10T12:46:37;14.38;;;9.32;;
64885;SDS011;51514;52.206;5.114;2023-05-10T12:49:02;20.85;;;12.55;;
64885;SDS011;51514;52.206;5.114;2023-05-10T12:51:28;18.52;;;11.50;;
64885;SDS011;51514;52.206;5.114;2023-05-10T12:53:53;18.38;;;12.32;;
64885;SDS011;51514;52.206;5.114;2023-05-10T12:56:19;23.67;;;12.52;;
64885;SDS011;51514;52.206;5.114;2023-05-10T12:58:47;25.67;;;13.85;;
64885;SDS011;51514;52.206;5.114;2023-05-10T13:01:13;25.70;;;13.27;;
64885;SDS011;51514;52.206;5.114;2023-05-10T13:03:39;24.05;;;13.80;;
64885;SDS011;51514;52.206;5.114;2023-05-10T13:06:04;22.23;;;13.27;;
64885;SDS011;51514;52.206;5.114;2023-05-10T13:08:30;23.42;;;13.32;;
64885;SDS011;51514;52.206;5.114;2023-05-10T13:10:58;23.98;;;13.40;;
64885;SDS011;51514;52.206;5.114;2023-05-10T13:13:24;25.35;;;14.55;;
64885;SDS011;51514;52.206;5.114;2023-05-10T13:15:49;23.58;;;13.70;;
64885;SDS011;51514;52.206;5.114;2023-05-10T13:18:15;24.73;;;13.65;;
64885;SDS011;51514;52.206;5.114;2023-05-10T13:20:40;22.23;;;12.80;;
64885;SDS011;51514;52.206;5.114;2023-05-10T13:23:05;18.70;;;11.20;;
64885;SDS011;51514;52.206;5.114;2023-05-10T13:25:31;22.52;;;11.57;;
64885;SDS011;51514;52.206;5.114;2023-05-10T13:28:02;21.15;;;12.25;;
64885;SDS011;51514;52.206;5.114;2023-05-10T13:30:27;21.48;;;11.57;;
64885;SDS011;51514;52.206;5.114;2023-05-10T13:32:53;17.55;;;11.23;;
64885;SDS011;51514;52.206;5.114;2023-05-10T13:35:19;17.38;;;10.90;;
64885;SDS011;51514;52.206;5.114;2023-05-10T13:37:44;18.15;;;9.98;;
64885;SDS011;51514;52.206;5.114;2023-05-10T13:40:10;14.05;;;8.90;;
64885;SDS011;51514;52.206;5.114;2023-05-10T13:42:35;15.98;;;8.93;;
64885;SDS011;51514;52.206;5.114;2023-05-10T13:45:01;18.67;;;9.45;;
64885;SDS011;51514;52.206;5.114;2023-05-10T13:47:27;17.77;;;9.88;;
64885;SDS011;51514;52.206;5.114;2023-05-10T13:49:52;16.23;;;9.85;;
64885;SDS011;51514;52.206;5.114;2023-05-10T13:52:18;15.68;;;8.90;;
64885;SDS011;51514;52.206;5.114;2023-05-10T13:54:43;17.73;;;9.80;;
64885;SDS011;51514;52.206;5.114;2023-05-10T13:57:09;18.77;;;10.27;;
64885;SDS011;51514;52.206;5.114;2023-05-10T13:59:36;17.80;;;9.73;;
64885;SDS011;51514;52.206;5.114;2023-05-10T14:02:02;17.60;;;10.45;;
64885;SDS011;51514;52.206;5.114;2023-05-10T14:04:28;15.63;;;9.10;;
64885;SDS011;51514;52.206;5.114;2023-05-10T14:06:53;17.02;;;9.38;;
64885;SDS011;51514;52.206;5.114;2023-05-10T14:09:19;15.20;;;9.02;;
64885;SDS011;51514;52.206;5.114;2023-05-10T14:11:44;17.80;;;10.02;;
64885;SDS011;51514;52.206;5.114;2023-05-10T14:14:10;17.88;;;9.45;;
64885;SDS011;51514;52.206;5.114;2023-05-10T14:16:36;14.90;;;9.35;;
64885;SDS011;51514;52.206;5.114;2023-05-10T14:19:01;17.30;;;10.88;;
64885;SDS011;51514;52.206;5.114;2023-05-10T14:21:27;17.52;;;9.75;;
64885;SDS011;51514;52.206;5.114;2023-05-10T14:23:54;17.52;;;8.52;;
64885;SDS011;51514;52.206;5.114;2023-05-10T14:26:20;12.07;;;7.57;;
64885;SDS011;51514;52.206;5.114;2023-05-10T14:28:46;10.82;;;7.03;;
64885;SDS011;51514;52.206;5.114;2023-05-10T14:31:11;11.60;;;7.50;;
64885;SDS011;51514;52.206;5.114;2023-05-10T14:33:37;16.98;;;8.48;;
64885;SDS011;51514;52.206;5.114;2023-05-10T14:36:02;14.90;;;8.45;;
64885;SDS011;51514;52.206;5.114;2023-05-10T14:38:28;12.55;;;8.32;;
64885;SDS011;51514;52.206;5.114;2023-05-10T14:40:54;12.98;;;8.27;;
64885;SDS011;51514;52.206;5.114;2023-05-10T14:43:20;13.23;;;8.88;;
64885;SDS011;51514;52.206;5.114;2023-05-10T14:45:45;12.65;;;8.75;;
64885;SDS011;51514;52.206;5.114;2023-05-10T14:48:10;17.02;;;9.25;;
64885;SDS011;51514;52.206;5.114;2023-05-10T14:50:40;16.83;;;9.27;;
64885;SDS011;51514;52.206;5.114;2023-05-10T14:53:05;17.48;;;9.18;;
64885;SDS011;51514;52.206;5.114;2023-05-10T14:55:31;14.07;;;9.68;;
64885;SDS011;51514;52.206;5.114;2023-05-10T14:57:57;14.68;;;9.25;;
64885;SDS011;51514;52.206;5.114;2023-05-10T15:00:23;15.35;;;9.13;;
64885;SDS011;51514;52.206;5.114;2023-05-10T15:02:48;14.20;;;8.75;;
64885;SDS011;51514;52.206;5.114;2023-05-10T15:05:14;16.13;;;9.30;;
64885;SDS011;51514;52.206;5.114;2023-05-10T15:07:40;13.70;;;8.35;;